sensor_id;sensor_type;location;lat;lon;timestamp;P1;durP1;ratioP1;P2;durP2;ratioP2
26050;SDS011;13825;53.496;10.020;2023-07-16T00:02:00;2.73;;;1.37;;
26050;SDS011;13825;53.496;10.020;2023-07-16T00:04:27;2.30;;;1.80;;
26050;SDS011;13825;53.496;10.020;2023-07-16T00:06:54;1.50;;;1.40;;
26050;SDS011;13825;53.496;10.020;2023-07-16T00:09:21;2.03;;;1.47;;
26050;SDS011;13825;53.496;10.020;2023-07-16T00:11:51;4.43;;;1.77;;
26050;SDS011;13825;53.496;10.020;2023-07-16T00:14:18;2.37;;;1.40;;
26050;SDS011;13825;53.496;10.020;2023-07-16T00:16:45;2.60;;;1.60;;
26050;SDS011;13825;53.496;10.020;2023-07-16T00:19:13;4.03;;;2.00;;
26050;SDS011;13825;53.496;10.020;2023-07-16T00:21:40;2.13;;;1.60;;
26050;SDS011;13825;53.496;10.020;2023-07-16T00:24:07;2.07;;;1.47;;
26050;SDS011;13825;53.496;10.020;2023-07-16T00:26:34;2.73;;;1.70;;
26050;SDS011;13825;53.496;10.020;2023-07-16T00:29:03;1.73;;;1.33;;
26050;SDS011;13825;53.496;10.020;2023-07-16T00:31:30;2.43;;;1.40;;
26050;SDS011;13825;53.496;10.020;2023-07-16T00:33:57;2.27;;;1.60;;
26050;SDS011;13825;53.496;10.020;2023-07-16T00:36:24;1.60;;;1.50;;
26050;SDS011;13825;53.496;10.020;2023-07-16T00:38:51;4.23;;;1.40;;
26050;SDS011;13825;53.496;10.020;2023-07-16T00:41:18;4.23;;;1.60;;
26050;SDS011;13825;53.496;10.020;2023-07-16T00:43:45;2.80;;;1.70;;
26050;SDS011;13825;53.496;10.020;2023-07-16T00:46:13;2.60;;;1.50;;
26050;SDS011;13825;53.496;10.020;2023-07-16T00:48:40;1.97;;;1.50;;
26050;SDS011;13825;53.496;10.020;2023-07-16T00:51:08;2.10;;;1.50;;
26050;SDS011;13825;53.496;10.020;2023-07-16T00:53:35;2.17;;;1.40;;
26050;SDS011;13825;53.496;10.020;2023-07-16T00:56:02;1.57;;;1.40;;
26050;SDS011;13825;53.496;10.020;2023-07-16T00:58:29;4.43;;;1.50;;
26050;SDS011;13825;53.496;10.020;2023-07-16T01:00:56;2.60;;;1.40;;
26050;SDS011;13825;53.496;10.020;2023-07-16T01:03:24;1.57;;;1.40;;
26050;SDS011;13825;53.496;10.020;2023-07-16T01:05:53;1.77;;;1.30;;
26050;SDS011;13825;53.496;10.020;2023-07-16T01:08:27;2.07;;;1.50;;
26050;SDS011;13825;53.496;10.020;2023-07-16T01:10:57;2.80;;;1.50;;
26050;SDS011;13825;53.496;10.020;2023-07-16T01:13:26;1.80;;;1.50;;
26050;SDS011;13825;53.496;10.020;2023-07-16T01:15:54;2.63;;;1.43;;
26050;SDS011;13825;53.496;10.020;2023-07-16T01:18:24;3.10;;;1.50;;
26050;SDS011;13825;53.496;10.020;2023-07-16T01:20:51;1.60;;;1.23;;
26050;SDS011;13825;53.496;10.020;2023-07-16T01:23:36;2.17;;;1.40;;
26050;SDS011;13825;53.496;10.020;2023-07-16T01:26:20;2.60;;;1.30;;
26050;SDS011;13825;53.496;10.020;2023-07-16T01:29:17;1.87;;;1.43;;
26050;SDS011;13825;53.496;10.020;2023-07-16T01:31:52;1.20;;;1.10;;
26050;SDS011;13825;53.496;10.020;2023-07-16T01:34:21;2.67;;;1.43;;
26050;SDS011;13825;53.496;10.020;2023-07-16T01:36:52;1.63;;;1.43;;
26050;SDS011;13825;53.496;10.020;2023-07-16T01:39:19;3.60;;;1.40;;
26050;SDS011;13825;53.496;10.020;2023-07-16T01:41:46;4.10;;;1.57;;
26050;SDS011;13825;53.496;10.020;2023-07-16T01:44:13;3.90;;;1.67;;
26050;SDS011;13825;53.496;10.020;2023-07-16T01:46:42;3.33;;;1.40;;
26050;SDS011;13825;53.496;10.020;2023-07-16T01:49:09;1.80;;;1.30;;
26050;SDS011;13825;53.496;10.020;2023-07-16T01:51:36;2.17;;;1.40;;
26050;SDS011;13825;53.496;10.020;2023-07-16T01:54:03;2.43;;;1.40;;
26050;SDS011;13825;53.496;10.020;2023-07-16T01:56:30;2.23;;;1.30;;
26050;SDS011;13825;53.496;10.020;2023-07-16T01:58:58;1.63;;;1.23;;
26050;SDS011;13825;53.496;10.020;2023-07-16T02:01:31;1.63;;;1.47;;
26050;SDS011;13825;53.496;10.020;2023-07-16T02:03:59;3.07;;;1.50;;
26050;SDS011;13825;53.496;10.020;2023-07-16T02:06:26;3.17;;;1.30;;
26050;SDS011;13825;53.496;10.020;2023-07-16T02:09:05;3.30;;;1.30;;
26050;SDS011;13825;53.496;10.020;2023-07-16T02:11:32;1.80;;;1.27;;
26050;SDS011;13825;53.496;10.020;2023-07-16T02:14:00;1.70;;;1.20;;
26050;SDS011;13825;53.496;10.020;2023-07-16T02:16:26;3.87;;;1.70;;
26050;SDS011;13825;53.496;10.020;2023-07-16T02:18:57;1.73;;;1.40;;
26050;SDS011;13825;53.496;10.020;2023-07-16T02:21:24;2.50;;;1.50;;
26050;SDS011;13825;53.496;10.020;2023-07-16T02:23:51;2.57;;;1.27;;
26050;SDS011;13825;53.496;10.020;2023-07-16T02:26:18;3.30;;;1.70;;
26050;SDS011;13825;53.496;10.020;2023-07-16T02:28:45;3.00;;;1.70;;
26050;SDS011;13825;53.496;10.020;2023-07-16T02:31:12;1.83;;;1.43;;
26050;SDS011;13825;53.496;10.020;2023-07-16T02:33:39;2.60;;;1.33;;
26050;SDS011;13825;53.496;10.020;2023-07-16T02:36:07;2.43;;;1.70;;
26050;SDS011;13825;53.496;10.020;2023-07-16T02:38:34;1.60;;;1.40;;
26050;SDS011;13825;53.496;10.020;2023-07-16T02:41:03;1.70;;;1.43;;
26050;SDS011;13825;53.496;10.020;2023-07-16T02:43:30;1.77;;;1.40;;
26050;SDS011;13825;53.496;10.020;2023-07-16T02:45:58;2.30;;;1.40;;
26050;SDS011;13825;53.496;10.020;2023-07-16T02:48:25;2.77;;;1.60;;
26050;SDS011;13825;53.496;10.020;2023-07-16T02:50:52;2.63;;;1.70;;
26050;SDS011;13825;53.496;10.020;2023-07-16T02:53:21;2.50;;;1.40;;
26050;SDS011;13825;53.496;10.020;2023-07-16T02:55:48;2.77;;;1.60;;
26050;SDS011;13825;53.496;10.020;2023-07-16T02:58:14;3.80;;;1.63;;
26050;SDS011;13825;53.496;10.020;2023-07-16T03:00:41;3.47;;;1.50;;
26050;SDS011;13825;53.496;10.020;2023-07-16T03:03:08;3.60;;;1.50;;
26050;SDS011;13825;53.496;10.020;2023-07-16T03:05:35;3.43;;;1.43;;
26050;SDS011;13825;53.496;10.020;2023-07-16T03:08:02;1.97;;;1.40;;
26050;SDS011;13825;53.496;10.020;2023-07-16T03:10:31;3.13;;;1.47;;
26050;SDS011;13825;53.496;10.020;2023-07-16T03:12:58;1.80;;;1.47;;
26050;SDS011;13825;53.496;10.020;2023-07-16T03:15:25;1.90;;;1.40;;
26050;SDS011;13825;53.496;10.020;2023-07-16T03:17:51;1.60;;;1.50;;
26050;SDS011;13825;53.496;10.020;2023-07-16T03:20:18;2.10;;;1.50;;
26050;SDS011;13825;53.496;10.020;2023-07-16T03:22:45;2.93;;;1.57;;
26050;SDS011;13825;53.496;10.020;2023-07-16T03:25:12;2.33;;;1.47;;
26050;SDS011;13825;53.496;10.020;2023-07-16T03:27:41;1.60;;;1.47;;
26050;SDS011;13825;53.496;10.020;2023-07-16T03:30:08;2.30;;;1.60;;
26050;SDS011;13825;53.496;10.020;2023-07-16T03:32:35;1.40;;;1.30;;
26050;SDS011;13825;53.496;10.020;2023-07-16T03:35:02;3.40;;;1.70;;
26050;SDS011;13825;53.496;10.020;2023-07-16T03:37:29;3.90;;;1.90;;
26050;SDS011;13825;53.496;10.020;2023-07-16T03:39:56;1.60;;;1.40;;
26050;SDS011;13825;53.496;10.020;2023-07-16T03:42:23;1.77;;;1.53;;
26050;SDS011;13825;53.496;10.020;2023-07-16T03:44:52;4.23;;;1.90;;
26050;SDS011;13825;53.496;10.020;2023-07-16T03:47:19;3.73;;;1.80;;
26050;SDS011;13825;53.496;10.020;2023-07-16T03:49:46;4.17;;;2.50;;
26050;SDS011;13825;53.496;10.020;2023-07-16T03:52:13;2.80;;;1.63;;
26050;SDS011;13825;53.496;10.020;2023-07-16T03:54:39;2.53;;;1.57;;
26050;SDS011;13825;53.496;10.020;2023-07-16T03:57:06;1.97;;;1.53;;
26050;SDS011;13825;53.496;10.020;2023-07-16T03:59:33;5.17;;;1.67;;
26050;SDS011;13825;53.496;10.020;2023-07-16T04:02:02;2.60;;;1.70;;
26050;SDS011;13825;53.496;10.020;2023-07-16T04:04:28;3.30;;;1.93;;
26050;SDS011;13825;53.496;10.020;2023-07-16T04:06:56;4.73;;;1.83;;
26050;SDS011;13825;53.496;10.020;2023-07-16T04:09:23;3.63;;;1.80;;
26050;SDS011;13825;53.496;10.020;2023-07-16T04:11:50;3.30;;;1.70;;
26050;SDS011;13825;53.496;10.020;2023-07-16T04:14:17;1.70;;;1.53;;
26050;SDS011;13825;53.496;10.020;2023-07-16T04:16:44;4.33;;;1.80;;
26050;SDS011;13825;53.496;10.020;2023-07-16T04:19:12;3.80;;;1.60;;
26050;SDS011;13825;53.496;10.020;2023-07-16T04:21:40;3.80;;;1.63;;
26050;SDS011;13825;53.496;10.020;2023-07-16T04:24:07;1.90;;;1.47;;
26050;SDS011;13825;53.496;10.020;2023-07-16T04:26:33;6.03;;;1.90;;
26050;SDS011;13825;53.496;10.020;2023-07-16T04:29:01;2.93;;;2.60;;
26050;SDS011;13825;53.496;10.020;2023-07-16T04:31:28;4.27;;;1.70;;
26050;SDS011;13825;53.496;10.020;2023-07-16T04:33:55;2.67;;;1.53;;
26050;SDS011;13825;53.496;10.020;2023-07-16T04:36:24;2.83;;;1.63;;
26050;SDS011;13825;53.496;10.020;2023-07-16T04:38:51;3.53;;;1.80;;
26050;SDS011;13825;53.496;10.020;2023-07-16T04:41:19;2.23;;;1.70;;
26050;SDS011;13825;53.496;10.020;2023-07-16T04:43:46;7.03;;;1.97;;
26050;SDS011;13825;53.496;10.020;2023-07-16T04:46:12;2.33;;;1.70;;
26050;SDS011;13825;53.496;10.020;2023-07-16T04:48:41;4.37;;;1.87;;
26050;SDS011;13825;53.496;10.020;2023-07-16T04:51:08;2.00;;;1.60;;
26050;SDS011;13825;53.496;10.020;2023-07-16T04:53:36;2.20;;;1.60;;
26050;SDS011;13825;53.496;10.020;2023-07-16T04:56:03;3.57;;;1.97;;
26050;SDS011;13825;53.496;10.020;2023-07-16T04:58:35;4.50;;;1.90;;
26050;SDS011;13825;53.496;10.020;2023-07-16T05:01:02;3.53;;;2.00;;
26050;SDS011;13825;53.496;10.020;2023-07-16T05:03:29;2.17;;;1.70;;
26050;SDS011;13825;53.496;10.020;2023-07-16T05:05:59;2.27;;;1.77;;
26050;SDS011;13825;53.496;10.020;2023-07-16T05:08:34;3.17;;;1.60;;
26050;SDS011;13825;53.496;10.020;2023-07-16T05:11:02;6.77;;;1.73;;
26050;SDS011;13825;53.496;10.020;2023-07-16T05:13:29;2.13;;;1.70;;
26050;SDS011;13825;53.496;10.020;2023-07-16T05:15:56;3.93;;;1.90;;
26050;SDS011;13825;53.496;10.020;2023-07-16T05:18:23;5.47;;;1.73;;
26050;SDS011;13825;53.496;10.020;2023-07-16T05:20:50;5.17;;;2.03;;
26050;SDS011;13825;53.496;10.020;2023-07-16T05:23:17;2.80;;;2.10;;
26050;SDS011;13825;53.496;10.020;2023-07-16T05:25:46;3.33;;;1.80;;
26050;SDS011;13825;53.496;10.020;2023-07-16T05:28:20;1.93;;;1.57;;
26050;SDS011;13825;53.496;10.020;2023-07-16T05:30:47;2.47;;;1.70;;
26050;SDS011;13825;53.496;10.020;2023-07-16T05:33:14;3.00;;;1.60;;
26050;SDS011;13825;53.496;10.020;2023-07-16T05:35:51;4.37;;;2.37;;
26050;SDS011;13825;53.496;10.020;2023-07-16T05:38:21;3.10;;;1.93;;
26050;SDS011;13825;53.496;10.020;2023-07-16T05:40:51;4.37;;;1.90;;
26050;SDS011;13825;53.496;10.020;2023-07-16T05:43:21;5.07;;;2.10;;
26050;SDS011;13825;53.496;10.020;2023-07-16T05:45:48;3.63;;;1.63;;
26050;SDS011;13825;53.496;10.020;2023-07-16T05:48:17;3.00;;;1.67;;
26050;SDS011;13825;53.496;10.020;2023-07-16T05:50:44;2.77;;;2.13;;
26050;SDS011;13825;53.496;10.020;2023-07-16T05:53:11;3.27;;;1.90;;
26050;SDS011;13825;53.496;10.020;2023-07-16T05:55:42;1.87;;;1.67;;
26050;SDS011;13825;53.496;10.020;2023-07-16T05:58:09;2.13;;;1.57;;
26050;SDS011;13825;53.496;10.020;2023-07-16T06:00:38;3.80;;;1.83;;
26050;SDS011;13825;53.496;10.020;2023-07-16T06:03:05;2.60;;;1.67;;
26050;SDS011;13825;53.496;10.020;2023-07-16T06:05:32;2.50;;;1.87;;
26050;SDS011;13825;53.496;10.020;2023-07-16T06:08:04;3.83;;;2.17;;
26050;SDS011;13825;53.496;10.020;2023-07-16T06:10:33;2.87;;;1.73;;
26050;SDS011;13825;53.496;10.020;2023-07-16T06:15:37;4.67;;;2.10;;
26050;SDS011;13825;53.496;10.020;2023-07-16T06:18:07;4.33;;;1.90;;
26050;SDS011;13825;53.496;10.020;2023-07-16T06:20:45;2.93;;;1.67;;
26050;SDS011;13825;53.496;10.020;2023-07-16T06:23:12;2.87;;;1.53;;
26050;SDS011;13825;53.496;10.020;2023-07-16T06:25:41;5.07;;;1.70;;
26050;SDS011;13825;53.496;10.020;2023-07-16T06:28:09;3.53;;;2.10;;
26050;SDS011;13825;53.496;10.020;2023-07-16T06:30:47;4.57;;;2.00;;
26050;SDS011;13825;53.496;10.020;2023-07-16T06:33:15;3.83;;;1.70;;
26050;SDS011;13825;53.496;10.020;2023-07-16T06:35:43;3.73;;;1.70;;
26050;SDS011;13825;53.496;10.020;2023-07-16T06:38:14;3.80;;;2.20;;
26050;SDS011;13825;53.496;10.020;2023-07-16T06:40:45;2.67;;;1.83;;
26050;SDS011;13825;53.496;10.020;2023-07-16T06:43:13;2.67;;;1.53;;
26050;SDS011;13825;53.496;10.020;2023-07-16T06:45:40;3.80;;;1.70;;
26050;SDS011;13825;53.496;10.020;2023-07-16T06:48:09;5.07;;;1.93;;
26050;SDS011;13825;53.496;10.020;2023-07-16T06:50:36;3.50;;;2.17;;
26050;SDS011;13825;53.496;10.020;2023-07-16T06:53:04;6.40;;;2.20;;
26050;SDS011;13825;53.496;10.020;2023-07-16T06:55:31;3.13;;;1.70;;
26050;SDS011;13825;53.496;10.020;2023-07-16T06:57:58;4.37;;;2.20;;
26050;SDS011;13825;53.496;10.020;2023-07-16T07:00:26;3.80;;;2.00;;
26050;SDS011;13825;53.496;10.020;2023-07-16T07:02:53;2.97;;;1.60;;
26050;SDS011;13825;53.496;10.020;2023-07-16T07:05:25;3.20;;;1.90;;
26050;SDS011;13825;53.496;10.020;2023-07-16T07:07:55;4.87;;;2.50;;
26050;SDS011;13825;53.496;10.020;2023-07-16T07:10:23;3.33;;;2.03;;
26050;SDS011;13825;53.496;10.020;2023-07-16T07:13:02;3.43;;;2.13;;
26050;SDS011;13825;53.496;10.020;2023-07-16T07:15:29;5.13;;;2.23;;
26050;SDS011;13825;53.496;10.020;2023-07-16T07:17:59;8.17;;;2.40;;
26050;SDS011;13825;53.496;10.020;2023-07-16T07:20:28;4.00;;;2.03;;
26050;SDS011;13825;53.496;10.020;2023-07-16T07:22:54;3.50;;;2.10;;
26050;SDS011;13825;53.496;10.020;2023-07-16T07:25:27;4.87;;;1.87;;
26050;SDS011;13825;53.496;10.020;2023-07-16T07:27:58;5.03;;;2.37;;
26050;SDS011;13825;53.496;10.020;2023-07-16T07:30:28;4.03;;;1.83;;
26050;SDS011;13825;53.496;10.020;2023-07-16T07:32:55;3.77;;;2.20;;
26050;SDS011;13825;53.496;10.020;2023-07-16T07:35:24;6.50;;;2.20;;
26050;SDS011;13825;53.496;10.020;2023-07-16T07:37:54;3.73;;;2.17;;
26050;SDS011;13825;53.496;10.020;2023-07-16T07:40:23;3.20;;;2.03;;
26050;SDS011;13825;53.496;10.020;2023-07-16T07:42:54;4.90;;;2.30;;
26050;SDS011;13825;53.496;10.020;2023-07-16T07:45:23;5.63;;;2.00;;
26050;SDS011;13825;53.496;10.020;2023-07-16T07:47:50;4.20;;;2.17;;
26050;SDS011;13825;53.496;10.020;2023-07-16T07:50:26;5.03;;;2.20;;
26050;SDS011;13825;53.496;10.020;2023-07-16T07:58:29;6.77;;;2.20;;
26050;SDS011;13825;53.496;10.020;2023-07-16T08:01:05;5.87;;;2.10;;
26050;SDS011;13825;53.496;10.020;2023-07-16T08:03:36;3.40;;;2.00;;
26050;SDS011;13825;53.496;10.020;2023-07-16T08:06:05;5.57;;;2.00;;
26050;SDS011;13825;53.496;10.020;2023-07-16T08:08:33;3.60;;;1.90;;
26050;SDS011;13825;53.496;10.020;2023-07-16T08:11:04;4.57;;;2.10;;
26050;SDS011;13825;53.496;10.020;2023-07-16T08:13:36;3.33;;;1.90;;
26050;SDS011;13825;53.496;10.020;2023-07-16T08:18:52;3.87;;;1.90;;
26050;SDS011;13825;53.496;10.020;2023-07-16T08:21:40;3.07;;;1.90;;
26050;SDS011;13825;53.496;10.020;2023-07-16T08:24:21;3.77;;;2.10;;
26050;SDS011;13825;53.496;10.020;2023-07-16T08:26:58;5.53;;;2.07;;
26050;SDS011;13825;53.496;10.020;2023-07-16T08:29:28;3.13;;;2.00;;
26050;SDS011;13825;53.496;10.020;2023-07-16T08:32:02;3.27;;;1.73;;
26050;SDS011;13825;53.496;10.020;2023-07-16T08:34:41;3.73;;;2.00;;
26050;SDS011;13825;53.496;10.020;2023-07-16T08:39:53;4.50;;;2.07;;
26050;SDS011;13825;53.496;10.020;2023-07-16T08:42:24;4.23;;;1.90;;
26050;SDS011;13825;53.496;10.020;2023-07-16T08:44:51;4.77;;;2.10;;
26050;SDS011;13825;53.496;10.020;2023-07-16T08:47:22;3.03;;;2.60;;
26050;SDS011;13825;53.496;10.020;2023-07-16T08:49:53;5.53;;;2.30;;
26050;SDS011;13825;53.496;10.020;2023-07-16T08:52:31;2.53;;;2.07;;
26050;SDS011;13825;53.496;10.020;2023-07-16T08:55:01;3.23;;;2.13;;
26050;SDS011;13825;53.496;10.020;2023-07-16T08:57:30;3.90;;;2.40;;
26050;SDS011;13825;53.496;10.020;2023-07-16T09:00:01;3.97;;;2.70;;
26050;SDS011;13825;53.496;10.020;2023-07-16T09:02:30;5.63;;;2.67;;
26050;SDS011;13825;53.496;10.020;2023-07-16T09:05:01;4.30;;;2.90;;
26050;SDS011;13825;53.496;10.020;2023-07-16T09:07:31;3.10;;;2.50;;
26050;SDS011;13825;53.496;10.020;2023-07-16T09:09:58;4.83;;;2.97;;
26050;SDS011;13825;53.496;10.020;2023-07-16T09:12:26;6.57;;;2.90;;
26050;SDS011;13825;53.496;10.020;2023-07-16T09:14:57;3.83;;;2.90;;
26050;SDS011;13825;53.496;10.020;2023-07-16T09:17:32;4.10;;;3.30;;
26050;SDS011;13825;53.496;10.020;2023-07-16T09:20:07;4.83;;;2.90;;
26050;SDS011;13825;53.496;10.020;2023-07-16T09:22:35;8.00;;;3.40;;
26050;SDS011;13825;53.496;10.020;2023-07-16T09:25:03;5.40;;;3.07;;
26050;SDS011;13825;53.496;10.020;2023-07-16T09:27:35;4.27;;;3.13;;
26050;SDS011;13825;53.496;10.020;2023-07-16T09:30:04;3.97;;;3.03;;
26050;SDS011;13825;53.496;10.020;2023-07-16T09:32:44;5.77;;;2.87;;
26050;SDS011;13825;53.496;10.020;2023-07-16T09:35:14;4.23;;;3.10;;
26050;SDS011;13825;53.496;10.020;2023-07-16T09:37:47;3.53;;;2.90;;
26050;SDS011;13825;53.496;10.020;2023-07-16T09:40:16;4.57;;;2.80;;
26050;SDS011;13825;53.496;10.020;2023-07-16T09:45:19;4.23;;;2.80;;
26050;SDS011;13825;53.496;10.020;2023-07-16T09:47:46;5.70;;;2.83;;
26050;SDS011;13825;53.496;10.020;2023-07-16T09:50:14;3.87;;;2.83;;
26050;SDS011;13825;53.496;10.020;2023-07-16T09:52:41;4.90;;;2.90;;
26050;SDS011;13825;53.496;10.020;2023-07-16T09:55:09;5.20;;;2.90;;
26050;SDS011;13825;53.496;10.020;2023-07-16T09:57:39;3.57;;;2.83;;
26050;SDS011;13825;53.496;10.020;2023-07-16T10:00:14;5.97;;;3.37;;
26050;SDS011;13825;53.496;10.020;2023-07-16T10:02:47;4.10;;;2.77;;
26050;SDS011;13825;53.496;10.020;2023-07-16T10:05:19;3.67;;;2.43;;
26050;SDS011;13825;53.496;10.020;2023-07-16T10:07:50;5.30;;;2.90;;
26050;SDS011;13825;53.496;10.020;2023-07-16T10:10:18;3.80;;;2.53;;
26050;SDS011;13825;53.496;10.020;2023-07-16T10:12:54;5.00;;;2.77;;
26050;SDS011;13825;53.496;10.020;2023-07-16T10:15:24;3.80;;;2.93;;
26050;SDS011;13825;53.496;10.020;2023-07-16T10:17:55;5.70;;;2.90;;
26050;SDS011;13825;53.496;10.020;2023-07-16T10:23:15;4.67;;;3.27;;
26050;SDS011;13825;53.496;10.020;2023-07-16T10:25:57;5.40;;;2.57;;
26050;SDS011;13825;53.496;10.020;2023-07-16T10:28:25;3.37;;;2.63;;
26050;SDS011;13825;53.496;10.020;2023-07-16T10:30:52;4.60;;;2.80;;
26050;SDS011;13825;53.496;10.020;2023-07-16T10:33:21;4.60;;;2.63;;
26050;SDS011;13825;53.496;10.020;2023-07-16T10:35:52;5.10;;;2.90;;
26050;SDS011;13825;53.496;10.020;2023-07-16T10:38:29;7.00;;;2.70;;
26050;SDS011;13825;53.496;10.020;2023-07-16T10:40:57;4.50;;;2.53;;
26050;SDS011;13825;53.496;10.020;2023-07-16T10:43:24;5.60;;;2.40;;
26050;SDS011;13825;53.496;10.020;2023-07-16T10:45:51;5.73;;;3.00;;
26050;SDS011;13825;53.496;10.020;2023-07-16T10:48:25;4.13;;;2.93;;
26050;SDS011;13825;53.496;10.020;2023-07-16T10:51:03;5.10;;;2.73;;
26050;SDS011;13825;53.496;10.020;2023-07-16T10:53:32;4.00;;;3.33;;
26050;SDS011;13825;53.496;10.020;2023-07-16T10:56:04;7.57;;;3.07;;
26050;SDS011;13825;53.496;10.020;2023-07-16T10:58:31;4.47;;;3.00;;
26050;SDS011;13825;53.496;10.020;2023-07-16T11:00:58;4.20;;;2.67;;
26050;SDS011;13825;53.496;10.020;2023-07-16T11:03:29;4.43;;;2.50;;
26050;SDS011;13825;53.496;10.020;2023-07-16T11:05:56;6.50;;;2.83;;
26050;SDS011;13825;53.496;10.020;2023-07-16T11:08:24;5.70;;;2.90;;
26050;SDS011;13825;53.496;10.020;2023-07-16T11:11:12;4.63;;;3.00;;
26050;SDS011;13825;53.496;10.020;2023-07-16T11:13:43;4.33;;;2.47;;
26050;SDS011;13825;53.496;10.020;2023-07-16T11:16:11;5.57;;;2.97;;
26050;SDS011;13825;53.496;10.020;2023-07-16T11:18:47;5.27;;;3.10;;
26050;SDS011;13825;53.496;10.020;2023-07-16T11:21:18;4.70;;;2.63;;
26050;SDS011;13825;53.496;10.020;2023-07-16T11:23:56;4.53;;;2.63;;
26050;SDS011;13825;53.496;10.020;2023-07-16T11:26:49;2.93;;;2.20;;
26050;SDS011;13825;53.496;10.020;2023-07-16T11:29:18;3.53;;;2.33;;
26050;SDS011;13825;53.496;10.020;2023-07-16T11:31:48;3.70;;;2.27;;
26050;SDS011;13825;53.496;10.020;2023-07-16T11:34:18;5.20;;;2.70;;
26050;SDS011;13825;53.496;10.020;2023-07-16T11:36:46;5.63;;;2.60;;
26050;SDS011;13825;53.496;10.020;2023-07-16T11:39:19;5.00;;;2.77;;
26050;SDS011;13825;53.496;10.020;2023-07-16T11:41:54;6.20;;;3.10;;
26050;SDS011;13825;53.496;10.020;2023-07-16T11:44:24;4.20;;;2.77;;
26050;SDS011;13825;53.496;10.020;2023-07-16T11:46:59;6.30;;;2.30;;
26050;SDS011;13825;53.496;10.020;2023-07-16T11:49:28;6.57;;;3.33;;
26050;SDS011;13825;53.496;10.020;2023-07-16T11:51:56;4.03;;;2.70;;
26050;SDS011;13825;53.496;10.020;2023-07-16T11:54:23;3.47;;;2.50;;
26050;SDS011;13825;53.496;10.020;2023-07-16T11:56:53;3.80;;;2.70;;
26050;SDS011;13825;53.496;10.020;2023-07-16T11:59:20;5.43;;;2.63;;
26050;SDS011;13825;53.496;10.020;2023-07-16T12:01:49;4.73;;;2.83;;
26050;SDS011;13825;53.496;10.020;2023-07-16T12:04:19;3.13;;;2.47;;
26050;SDS011;13825;53.496;10.020;2023-07-16T12:06:48;4.07;;;2.47;;
26050;SDS011;13825;53.496;10.020;2023-07-16T12:09:15;3.20;;;2.30;;
26050;SDS011;13825;53.496;10.020;2023-07-16T12:11:47;4.50;;;2.87;;
26050;SDS011;13825;53.496;10.020;2023-07-16T12:14:16;5.40;;;2.93;;
26050;SDS011;13825;53.496;10.020;2023-07-16T12:16:43;6.00;;;3.10;;
26050;SDS011;13825;53.496;10.020;2023-07-16T12:19:13;5.17;;;2.37;;
26050;SDS011;13825;53.496;10.020;2023-07-16T12:21:42;3.33;;;2.20;;
26050;SDS011;13825;53.496;10.020;2023-07-16T12:24:12;3.90;;;2.70;;
26050;SDS011;13825;53.496;10.020;2023-07-16T12:26:42;4.13;;;2.47;;
26050;SDS011;13825;53.496;10.020;2023-07-16T12:29:09;3.50;;;2.40;;
26050;SDS011;13825;53.496;10.020;2023-07-16T12:31:36;2.73;;;2.30;;
26050;SDS011;13825;53.496;10.020;2023-07-16T12:34:07;5.13;;;2.50;;
26050;SDS011;13825;53.496;10.020;2023-07-16T12:36:40;4.47;;;2.30;;
26050;SDS011;13825;53.496;10.020;2023-07-16T12:39:07;3.40;;;2.43;;
26050;SDS011;13825;53.496;10.020;2023-07-16T12:41:41;3.87;;;2.20;;
26050;SDS011;13825;53.496;10.020;2023-07-16T12:44:16;2.93;;;2.10;;
26050;SDS011;13825;53.496;10.020;2023-07-16T12:46:43;5.27;;;2.30;;
26050;SDS011;13825;53.496;10.020;2023-07-16T12:49:10;3.70;;;2.50;;
26050;SDS011;13825;53.496;10.020;2023-07-16T12:51:40;5.50;;;2.63;;
26050;SDS011;13825;53.496;10.020;2023-07-16T12:54:09;4.00;;;2.20;;
26050;SDS011;13825;53.496;10.020;2023-07-16T12:56:37;3.00;;;1.83;;
26050;SDS011;13825;53.496;10.020;2023-07-16T12:59:05;4.63;;;2.60;;
26050;SDS011;13825;53.496;10.020;2023-07-16T13:01:32;4.83;;;2.20;;
26050;SDS011;13825;53.496;10.020;2023-07-16T13:03:59;3.37;;;1.80;;
26050;SDS011;13825;53.496;10.020;2023-07-16T13:06:31;3.80;;;2.30;;
26050;SDS011;13825;53.496;10.020;2023-07-16T13:09:00;3.80;;;2.43;;
26050;SDS011;13825;53.496;10.020;2023-07-16T13:11:30;3.43;;;2.23;;
26050;SDS011;13825;53.496;10.020;2023-07-16T13:14:03;3.77;;;2.43;;
26050;SDS011;13825;53.496;10.020;2023-07-16T13:16:33;3.67;;;2.07;;
26050;SDS011;13825;53.496;10.020;2023-07-16T13:19:02;3.53;;;2.20;;
26050;SDS011;13825;53.496;10.020;2023-07-16T13:21:32;2.77;;;2.17;;
26050;SDS011;13825;53.496;10.020;2023-07-16T13:23:58;4.67;;;2.40;;
26050;SDS011;13825;53.496;10.020;2023-07-16T13:26:26;3.53;;;2.20;;
26050;SDS011;13825;53.496;10.020;2023-07-16T13:28:58;2.97;;;1.93;;
26050;SDS011;13825;53.496;10.020;2023-07-16T13:31:34;3.50;;;2.20;;
26050;SDS011;13825;53.496;10.020;2023-07-16T13:34:09;3.53;;;2.10;;
26050;SDS011;13825;53.496;10.020;2023-07-16T13:36:37;5.10;;;2.17;;
26050;SDS011;13825;53.496;10.020;2023-07-16T13:39:07;4.70;;;2.37;;
26050;SDS011;13825;53.496;10.020;2023-07-16T13:41:37;4.77;;;2.40;;
26050;SDS011;13825;53.496;10.020;2023-07-16T13:44:04;3.53;;;2.10;;
26050;SDS011;13825;53.496;10.020;2023-07-16T13:46:38;4.40;;;2.40;;
26050;SDS011;13825;53.496;10.020;2023-07-16T13:49:08;5.13;;;2.27;;
26050;SDS011;13825;53.496;10.020;2023-07-16T13:51:38;4.37;;;2.00;;
26050;SDS011;13825;53.496;10.020;2023-07-16T13:54:10;4.20;;;2.23;;
26050;SDS011;13825;53.496;10.020;2023-07-16T13:56:38;4.47;;;1.93;;
26050;SDS011;13825;53.496;10.020;2023-07-16T13:59:11;3.43;;;2.30;;
26050;SDS011;13825;53.496;10.020;2023-07-16T14:01:40;2.80;;;2.20;;
26050;SDS011;13825;53.496;10.020;2023-07-16T14:04:10;4.20;;;2.10;;
26050;SDS011;13825;53.496;10.020;2023-07-16T14:06:37;5.53;;;2.33;;
26050;SDS011;13825;53.496;10.020;2023-07-16T14:09:05;2.83;;;1.93;;
26050;SDS011;13825;53.496;10.020;2023-07-16T14:11:35;4.03;;;2.30;;
26050;SDS011;13825;53.496;10.020;2023-07-16T14:14:05;4.30;;;2.07;;
26050;SDS011;13825;53.496;10.020;2023-07-16T14:16:36;5.03;;;2.23;;
26050;SDS011;13825;53.496;10.020;2023-07-16T14:19:13;3.43;;;2.10;;
26050;SDS011;13825;53.496;10.020;2023-07-16T14:21:43;5.33;;;2.17;;
26050;SDS011;13825;53.496;10.020;2023-07-16T14:24:11;5.97;;;2.27;;
26050;SDS011;13825;53.496;10.020;2023-07-16T14:26:38;2.67;;;1.90;;
26050;SDS011;13825;53.496;10.020;2023-07-16T14:29:05;5.10;;;2.40;;
26050;SDS011;13825;53.496;10.020;2023-07-16T14:31:36;2.90;;;2.37;;
26050;SDS011;13825;53.496;10.020;2023-07-16T14:34:09;2.47;;;1.70;;
26050;SDS011;13825;53.496;10.020;2023-07-16T14:36:41;2.67;;;1.87;;
26050;SDS011;13825;53.496;10.020;2023-07-16T14:39:10;4.23;;;2.10;;
26050;SDS011;13825;53.496;10.020;2023-07-16T14:41:45;3.43;;;2.00;;
26050;SDS011;13825;53.496;10.020;2023-07-16T14:44:15;4.03;;;2.67;;
26050;SDS011;13825;53.496;10.020;2023-07-16T14:46:48;5.17;;;2.30;;
26050;SDS011;13825;53.496;10.020;2023-07-16T14:49:15;3.93;;;2.53;;
26050;SDS011;13825;53.496;10.020;2023-07-16T14:51:51;7.50;;;3.43;;
26050;SDS011;13825;53.496;10.020;2023-07-16T14:54:18;7.17;;;3.77;;
26050;SDS011;13825;53.496;10.020;2023-07-16T14:56:47;4.33;;;2.50;;
26050;SDS011;13825;53.496;10.020;2023-07-16T14:59:14;3.33;;;2.43;;
26050;SDS011;13825;53.496;10.020;2023-07-16T15:01:40;6.67;;;3.90;;
26050;SDS011;13825;53.496;10.020;2023-07-16T15:04:09;7.70;;;4.63;;
26050;SDS011;13825;53.496;10.020;2023-07-16T15:06:40;5.93;;;2.70;;